Portada
METAR-TAF:

METAR-TAF

Aeroports :

Odessa, Ucraïna

latitud: 46-26N, longitud: 030-46E, altitud: 42 m

Observació

L'informe es va fer fa 22 minuts, a les 17:00 UTC
Vent 12 kt del Oest
Temperatura 3°C
Humitat 70%
Pressió 1029 hPa
Visibilitat 10 km o més
sense núvols per sota de 1500 mi sense presència de cumulonimbus.

METAR: UKOO 211700Z 26006MPS CAVOK 03/M02 Q1029 R34/090060 NOSIG

Hora: 19:22 (17:22 UTC)

Pronòstic

L'informe es va fer fa 6 hores i 19 minuts, a les 11:03 UTC
Pronòstic vàlid del 21 a les 12 UTC al 22 a les 12 UTC
Vent 16 kt del Oest/Nord-Oest amb ràfegues de 27 kt
Visibilitat: 6000 m
Cel ennuvolat a una alçada de 700 ft

TAF: UKOO 211103Z 2112/2212 29008G14MPS 6000 BKN007 TX06/2112Z TN00/2205Z

Observacions i pronòstics meteorològics de més de 4000 aeroports (METAR i TAF).

Les estacions disponibles són els punts grocs i vermells al mapa.

Posi el ratolí al punt desitjat per veure el nom de l'estació.

Feu clic per veure les observacions i els pronòstics meteorològics.

Per canviar el mapa: feu clic els botons verds amb una creu de color negre per apropar; al botó verd amb un guió per allunyar la imatge; o en les fletxes verdes per a mapes adjacents.


METAR-TAF: